Time;durP1;ratioP1;P1;durP2;ratioP2;P2;SDS_P1;SDS_P2;PMS_P1;PMS_P2;Temp;Humidity;BMP_temperature;BMP_pressure;BME280_temperature;BME280_humidity;BME280_pressure;Samples;Min_cycle;Max_cycle;Signal;HPM_P1;HPM_P2
2023/03/03 00:01:27;;;;;;;141.60;75.40;;;;;;;-2.64;64.90;99371.86;108894;1254;94252;-70
2023/03/03 00:03:55;;;;;;;145.70;77.50;;;;;;;-2.68;64.64;99371.39;108901;1253;109891;-70
2023/03/03 00:06:23;;;;;;;140.80;79.10;;;;;;;-2.71;64.67;99364.14;108949;1254;100744;-71
2023/03/03 00:08:52;;;;;;;138.20;73.20;;;;;;;-2.72;65.01;99362.41;108898;1253;107603;-70
2023/03/03 00:11:20;;;;;;;122.20;69.70;;;;;;;-2.69;65.08;99363.41;108679;1253;94283;-70
2023/03/03 00:13:53;;;;;;;121.40;68.80;;;;;;;-2.72;64.91;99363.63;108913;1254;94249;-69
2023/03/03 00:16:23;;;;;;;123.00;68.50;;;;;;;-2.76;64.71;99364.89;108658;1253;109975;-70
2023/03/03 00:18:52;;;;;;;144.80;73.90;;;;;;;-2.78;65.00;99363.70;108826;1255;100613;-71
2023/03/03 00:21:32;;;;;;;146.10;79.30;;;;;;;-2.80;64.84;99361.48;108827;1254;107657;-70
2023/03/03 00:24:17;;;;;;;142.70;78.30;;;;;;;-2.80;65.00;99361.30;108902;1254;94224;-70
2023/03/03 00:26:56;;;;;;;139.50;75.00;;;;;;;-2.83;64.89;99363.59;108888;1254;94265;-69
2023/03/03 00:29:35;;;;;;;151.40;78.60;;;;;;;-2.87;65.04;99361.56;108859;1254;109916;-70
2023/03/03 00:32:21;;;;;;;158.60;81.10;;;;;;;-2.90;65.01;99361.63;108667;1254;100856;-70
2023/03/03 00:34:52;;;;;;;152.70;77.90;;;;;;;-2.93;65.08;99359.40;108738;1253;106637;-73
2023/03/03 00:37:28;;;;;;;153.70;76.60;;;;;;;-2.96;64.79;99354.92;108799;1254;94447;-70
2023/03/03 00:40:14;;;;;;;168.90;88.50;;;;;;;-2.96;65.23;99349.71;108870;1254;94283;-69
2023/03/03 00:42:49;;;;;;;154.90;81.30;;;;;;;-2.92;65.05;99353.31;108920;1252;109363;-70
2023/03/03 00:45:27;;;;;;;172.80;84.30;;;;;;;-2.95;65.34;99353.70;108679;1257;98798;-70
2023/03/03 00:47:55;;;;;;;171.60;88.40;;;;;;;-2.94;64.99;99351.77;108876;1253;108330;-70
2023/03/03 00:50:33;;;;;;;167.00;85.10;;;;;;;-2.90;65.04;99349.98;108841;1254;94186;-70
2023/03/03 00:53:03;;;;;;;178.20;85.10;;;;;;;-2.87;65.13;99350.81;108767;1253;94274;-70
2023/03/03 00:55:32;;;;;;;155.30;81.60;;;;;;;-2.86;64.93;99352.37;108747;1257;109949;-70
2023/03/03 00:58:02;;;;;;;166.30;83.10;;;;;;;-2.88;65.32;99353.95;108777;1253;101190;-70
2023/03/03 01:00:31;;;;;;;166.60;85.40;;;;;;;-2.89;65.39;99352.92;108544;1253;107723;-70
2023/03/03 01:03:04;;;;;;;159.20;79.00;;;;;;;-2.87;65.40;99350.64;108784;1253;94301;-70
2023/03/03 01:05:32;;;;;;;148.40;79.00;;;;;;;-2.89;65.25;99347.20;108819;1253;94374;-70
2023/03/03 01:08:01;;;;;;;145.00;78.00;;;;;;;-2.91;65.43;99344.45;108776;1252;110650;-70
2023/03/03 01:10:33;;;;;;;141.90;76.10;;;;;;;-2.93;65.49;99346.38;108834;1253;101101;-70
2023/03/03 01:13:04;;;;;;;153.00;78.20;;;;;;;-2.94;65.37;99344.31;108817;1252;106190;-70
2023/03/03 01:15:32;;;;;;;149.50;77.40;;;;;;;-2.93;65.31;99348.81;108706;1253;94249;-70
2023/03/03 01:18:00;;;;;;;139.20;75.80;;;;;;;-2.94;65.49;99344.84;108846;1253;94715;-69
2023/03/03 01:20:28;;;;;;;136.80;73.10;;;;;;;-2.96;65.36;99345.55;108704;1254;109900;-70
2023/03/03 01:22:56;;;;;;;128.00;69.00;;;;;;;-3.00;65.32;99345.94;108804;1253;100668;-70
2023/03/03 01:25:24;;;;;;;126.80;69.00;;;;;;;-2.99;65.59;99341.94;108827;1254;107683;-70
2023/03/03 01:27:52;;;;;;;126.10;68.10;;;;;;;-2.98;65.54;99343.49;108823;1254;94211;-75
2023/03/03 01:30:20;;;;;;;130.40;70.40;;;;;;;-2.96;65.65;99344.52;108897;1254;94333;-70
2023/03/03 01:32:48;;;;;;;120.80;64.20;;;;;;;-2.94;65.60;99341.18;108737;1253;109568;-70
2023/03/03 01:35:16;;;;;;;135.30;70.30;;;;;;;-2.93;65.37;99338.40;108737;1253;100905;-70
2023/03/03 01:37:44;;;;;;;131.10;71.90;;;;;;;-2.91;65.65;99336.30;108784;1251;107620;-70
2023/03/03 01:40:20;;;;;;;122.10;65.80;;;;;;;-2.88;65.57;99333.98;108680;1253;94279;-70
2023/03/03 01:42:49;;;;;;;127.70;66.90;;;;;;;-2.85;65.67;99335.52;108723;1253;94237;-70
2023/03/03 01:45:29;;;;;;;121.50;67.10;;;;;;;-2.82;65.99;99331.83;108641;1254;109908;-70
2023/03/03 01:48:08;;;;;;;131.00;70.10;;;;;;;-2.81;65.73;99330.59;108615;1254;100904;-70
2023/03/03 01:51:00;;;;;;;116.70;67.30;;;;;;;-2.75;65.86;99332.08;108680;1253;107636;-71
2023/03/03 01:53:47;;;;;;;121.50;64.60;;;;;;;-2.72;65.83;99327.35;108875;1252;94293;-70
2023/03/03 01:56:15;;;;;;;121.70;63.50;;;;;;;-2.68;65.91;99326.42;108849;1253;94281;-70
2023/03/03 01:58:51;;;;;;;126.20;69.00;;;;;;;-2.61;65.81;99323.71;108829;1252;109352;-70
2023/03/03 02:01:22;;;;;;;111.40;64.20;;;;;;;-2.49;66.32;99324.08;108776;1254;101108;-70
2023/03/03 02:03:52;;;;;;;123.20;65.80;;;;;;;-2.42;66.15;99321.86;108741;1253;107576;-70
2023/03/03 02:06:25;;;;;;;127.00;67.50;;;;;;;-2.32;66.08;99323.45;108657;1254;94724;-70
2023/03/03 02:09:24;;;;;;;120.00;65.80;;;;;;;-2.22;66.11;99321.38;108811;1254;94255;-70
2023/03/03 02:11:58;;;;;;;125.50;69.30;;;;;;;-2.14;66.27;99318.98;108816;1253;110374;-70
2023/03/03 02:14:27;;;;;;;116.00;64.40;;;;;;;-2.05;66.14;99320.59;108798;1253;100908;-69
2023/03/03 02:16:55;;;;;;;124.60;69.30;;;;;;;-2.01;66.22;99315.63;108886;1253;108054;-70
2023/03/03 02:19:38;;;;;;;124.00;70.10;;;;;;;-1.93;66.36;99314.11;108505;1254;94279;-70
2023/03/03 02:22:07;;;;;;;126.70;71.70;;;;;;;-1.86;66.48;99312.94;108900;1254;94326;-74
2023/03/03 02:24:48;;;;;;;124.20;68.30;;;;;;;-1.79;66.44;99310.21;108757;1254;109604;-70
2023/03/03 02:27:16;;;;;;;117.90;66.40;;;;;;;-1.76;66.40;99307.37;108760;1253;101004;-71
2023/03/03 02:29:44;;;;;;;128.70;69.20;;;;;;;-1.72;66.46;99309.22;108878;1253;107131;-70
2023/03/03 02:32:12;;;;;;;120.70;67.40;;;;;;;-1.69;66.63;99308.63;108745;1254;94243;-70
2023/03/03 02:34:47;;;;;;;122.10;74.00;;;;;;;-1.66;66.43;99307.52;108800;1253;94287;-75
2023/03/03 02:37:15;;;;;;;123.50;70.90;;;;;;;-1.62;66.46;99307.81;108842;1253;108332;-76
2023/03/03 02:39:43;;;;;;;126.20;75.00;;;;;;;-1.59;66.66;99303.39;108932;1253;100700;-70
2023/03/03 02:42:23;;;;;;;125.10;72.10;;;;;;;-1.54;66.65;99304.34;108884;1254;107636;-70
2023/03/03 02:44:51;;;;;;;129.60;76.30;;;;;;;-1.48;66.75;99304.95;108900;1253;94519;-70
2023/03/03 02:47:19;;;;;;;125.10;74.10;;;;;;;-1.43;66.57;99302.39;108922;1254;94451;-70
2023/03/03 02:49:47;;;;;;;123.50;72.20;;;;;;;-1.40;66.83;99302.16;108882;1253;109358;-70
2023/03/03 02:52:16;;;;;;;122.20;71.00;;;;;;;-1.35;66.73;99304.85;108896;1253;100902;-75
2023/03/03 02:54:45;;;;;;;127.90;74.80;;;;;;;-1.32;66.77;99303.57;108916;1253;107418;-70
2023/03/03 02:57:13;;;;;;;119.40;68.20;;;;;;;-1.29;66.74;99302.11;108850;1253;94253;-70
2023/03/03 02:59:41;;;;;;;130.10;77.10;;;;;;;-1.25;66.75;99303.23;108893;1253;94473;-70
2023/03/03 03:02:09;;;;;;;127.00;73.40;;;;;;;-1.21;66.87;99300.02;108791;1252;110070;-70
2023/03/03 03:04:37;;;;;;;123.60;72.30;;;;;;;-1.16;67.00;99297.33;108937;1253;100685;-70
2023/03/03 03:07:05;;;;;;;126.80;75.10;;;;;;;-1.13;66.85;99297.09;108847;1253;107325;-70
2023/03/03 03:09:34;;;;;;;125.50;73.00;;;;;;;-1.11;66.85;99296.88;108906;1252;94257;-70
2023/03/03 03:12:01;;;;;;;127.70;74.90;;;;;;;-1.09;66.96;99298.04;108926;1253;94192;-70
2023/03/03 03:14:30;;;;;;;133.00;79.90;;;;;;;-1.07;66.84;99299.92;108803;1253;109430;-74
2023/03/03 03:16:57;;;;;;;150.40;89.30;;;;;;;-1.05;67.07;99296.77;108767;1253;100642;-70
2023/03/03 03:19:27;;;;;;;159.10;92.20;;;;;;;-1.01;67.21;99294.05;108776;1253;107180;-70
2023/03/03 03:21:55;;;;;;;143.50;80.70;;;;;;;-0.96;67.21;99287.66;108761;1252;94384;-70
2023/03/03 03:24:23;;;;;;;141.70;83.50;;;;;;;-0.93;67.26;99284.30;108908;1253;94262;-70
2023/03/03 03:26:50;;;;;;;130.20;77.40;;;;;;;-0.90;67.30;99279.70;108856;1253;109922;-70
2023/03/03 03:29:18;;;;;;;132.10;75.10;;;;;;;-0.89;67.18;99275.67;108862;1253;100546;-70
2023/03/03 03:31:46;;;;;;;134.50;80.40;;;;;;;-0.88;67.31;99281.41;108834;1253;107084;-70
2023/03/03 03:34:14;;;;;;;142.00;83.80;;;;;;;-0.88;67.18;99281.92;108778;1253;94283;-70
2023/03/03 03:36:45;;;;;;;154.40;88.10;;;;;;;-0.88;67.10;99278.80;108748;1253;94359;-70
2023/03/03 03:39:13;;;;;;;145.80;86.70;;;;;;;-0.87;67.25;99279.30;108855;1253;109844;-70
2023/03/03 03:41:40;;;;;;;148.80;88.20;;;;;;;-0.86;67.12;99276.48;108854;1253;100908;-70
2023/03/03 03:44:08;;;;;;;157.80;93.60;;;;;;;-0.85;67.24;99277.86;108862;1253;106724;-70
2023/03/03 03:46:36;;;;;;;167.90;93.40;;;;;;;-0.82;67.37;99272.38;108811;1253;94346;-70
2023/03/03 03:49:04;;;;;;;172.90;99.50;;;;;;;-0.78;67.31;99273.88;108873;1253;94631;-72
2023/03/03 03:51:34;;;;;;;181.10;103.10;;;;;;;-0.76;67.33;99270.52;108791;1253;110007;-70
2023/03/03 03:54:02;;;;;;;169.10;93.10;;;;;;;-0.73;67.40;99269.39;108729;1253;100672;-70
2023/03/03 03:56:30;;;;;;;150.50;88.80;;;;;;;-0.72;67.41;99269.38;108773;1254;108361;-70
2023/03/03 03:58:59;;;;;;;143.70;86.10;;;;;;;-0.71;67.46;99266.73;108647;1253;94277;-70
2023/03/03 04:01:27;;;;;;;141.90;80.40;;;;;;;-0.69;67.50;99268.97;108792;1252;94300;-70
2023/03/03 04:03:55;;;;;;;133.00;79.60;;;;;;;-0.69;67.39;99262.52;108830;1252;109920;-70
2023/03/03 04:06:23;;;;;;;137.80;82.90;;;;;;;-0.66;67.44;99260.17;108828;1252;99531;-70
2023/03/03 04:08:51;;;;;;;133.20;78.90;;;;;;;-0.64;67.42;99261.54;108821;1252;106828;-72
2023/03/03 04:11:19;;;;;;;127.30;76.80;;;;;;;-0.65;67.40;99260.33;108818;1252;94324;-70
2023/03/03 04:13:47;;;;;;;137.70;81.90;;;;;;;-0.65;67.32;99257.38;108861;1252;94210;-70
2023/03/03 04:16:15;;;;;;;133.20;76.80;;;;;;;-0.62;67.59;99254.15;108725;1252;109733;-74
2023/03/03 04:18:43;;;;;;;128.70;76.40;;;;;;;-0.61;67.54;99252.23;108741;1253;100900;-70
2023/03/03 04:21:14;;;;;;;128.40;74.50;;;;;;;-0.61;67.61;99252.73;108839;1252;108865;-70
2023/03/03 04:23:42;;;;;;;124.50;76.20;;;;;;;-0.60;67.63;99252.19;108821;1253;94286;-70
2023/03/03 04:26:10;;;;;;;121.80;76.10;;;;;;;-0.60;67.51;99256.88;108835;1252;94226;-70
2023/03/03 04:28:38;;;;;;;136.70;79.90;;;;;;;-0.58;67.65;99247.98;108851;1252;109898;-70
2023/03/03 04:31:06;;;;;;;132.30;82.10;;;;;;;-0.57;67.61;99240.45;108901;1252;100524;-70
2023/03/03 04:33:35;;;;;;;123.80;74.20;;;;;;;-0.55;67.57;99239.01;108784;1253;107374;-70
2023/03/03 04:36:03;;;;;;;132.10;76.80;;;;;;;-0.55;67.64;99239.88;108796;1252;94513;-72
2023/03/03 04:38:31;;;;;;;122.20;70.60;;;;;;;-0.52;67.71;99239.46;108859;1253;94376;-70
2023/03/03 04:40:59;;;;;;;122.10;68.70;;;;;;;-0.50;67.75;99242.21;108752;1253;109937;-70
2023/03/03 04:43:27;;;;;;;120.50;70.60;;;;;;;-0.49;67.73;99244.96;108867;1252;100725;-70
2023/03/03 04:45:55;;;;;;;121.30;73.50;;;;;;;-0.48;67.71;99246.67;108804;1252;107376;-70
2023/03/03 04:48:23;;;;;;;120.80;71.10;;;;;;;-0.45;67.89;99243.13;108808;1252;94251;-70
2023/03/03 04:50:51;;;;;;;111.10;66.70;;;;;;;-0.43;67.76;99243.79;108739;1253;94306;-70
2023/03/03 04:53:19;;;;;;;124.90;72.70;;;;;;;-0.42;67.80;99244.63;108742;1252;110583;-70
2023/03/03 04:55:51;;;;;;;116.30;69.20;;;;;;;-0.41;67.77;99248.43;108677;1254;98988;-70
2023/03/03 04:58:20;;;;;;;113.00;68.80;;;;;;;-0.40;68.04;99242.30;108747;1251;107824;-70
2023/03/03 05:00:55;;;;;;;112.50;68.30;;;;;;;-0.39;67.91;99244.71;108827;1252;94325;-70
2023/03/03 05:03:25;;;;;;;119.90;68.00;;;;;;;-0.37;67.98;99247.98;108614;1252;94239;-70
2023/03/03 05:05:54;;;;;;;115.80;68.60;;;;;;;-0.36;67.98;99249.35;108700;1252;109686;-70
2023/03/03 05:08:22;;;;;;;116.10;70.20;;;;;;;-0.34;67.94;99246.17;108698;1252;101017;-71
2023/03/03 05:10:51;;;;;;;117.80;67.50;;;;;;;-0.33;67.69;99246.66;108538;1255;107884;-70
2023/03/03 05:13:19;;;;;;;126.60;74.10;;;;;;;-0.33;67.96;99247.19;108653;1252;94292;-70
2023/03/03 05:15:51;;;;;;;127.60;71.90;;;;;;;-0.32;68.06;99246.45;108519;1253;94288;-70
2023/03/03 05:18:21;;;;;;;127.30;73.80;;;;;;;-0.28;67.98;99249.19;108609;1253;109652;-70
2023/03/03 05:20:51;;;;;;;137.70;77.20;;;;;;;-0.28;68.01;99247.60;108661;1252;100832;-70
2023/03/03 05:23:19;;;;;;;124.10;71.50;;;;;;;-0.26;68.05;99251.37;108797;1252;107635;-70
2023/03/03 05:25:48;;;;;;;138.20;76.60;;;;;;;-0.25;68.07;99253.09;108821;1252;94325;-70
2023/03/03 05:28:17;;;;;;;157.50;88.80;;;;;;;-0.26;68.09;99253.99;108752;1254;94239;-76
2023/03/03 05:30:45;;;;;;;155.60;95.30;;;;;;;-0.29;67.93;99256.14;108667;1253;109946;-70
2023/03/03 05:33:14;;;;;;;144.50;88.10;;;;;;;-0.29;68.14;99257.19;108803;1252;100538;-70
2023/03/03 05:35:42;;;;;;;165.30;101.50;;;;;;;-0.27;68.13;99258.20;108793;1252;107335;-70
2023/03/03 05:38:10;;;;;;;162.50;96.00;;;;;;;-0.26;68.09;99261.48;108767;1252;94252;-70
2023/03/03 05:40:38;;;;;;;173.20;102.70;;;;;;;-0.26;67.96;99260.45;108789;1252;94324;-70
2023/03/03 05:43:06;;;;;;;165.40;96.10;;;;;;;-0.25;68.01;99266.70;108823;1252;109897;-70
2023/03/03 05:45:34;;;;;;;150.90;87.20;;;;;;;-0.24;68.18;99264.22;108837;1252;99474;-70
2023/03/03 05:48:03;;;;;;;147.20;88.10;;;;;;;-0.23;68.12;99268.73;108817;1252;108329;-70
2023/03/03 05:50:31;;;;;;;137.50;82.10;;;;;;;-0.22;68.19;99270.45;108687;1253;94701;-70
2023/03/03 05:52:59;;;;;;;135.70;77.70;;;;;;;-0.21;68.15;99269.88;108916;1252;94281;-70
2023/03/03 05:55:28;;;;;;;145.10;85.10;;;;;;;-0.21;68.26;99271.98;108874;1253;109921;-76
2023/03/03 05:57:56;;;;;;;151.70;90.10;;;;;;;-0.21;68.19;99274.42;108899;1253;99900;-70
2023/03/03 06:00:24;;;;;;;158.70;95.10;;;;;;;-0.18;68.21;99276.42;108725;1253;107383;-72
2023/03/03 06:02:52;;;;;;;137.30;84.80;;;;;;;-0.15;68.40;99275.30;108696;1252;94415;-70
2023/03/03 06:05:20;;;;;;;138.30;82.90;;;;;;;-0.12;68.35;99270.38;108842;1252;94356;-70
2023/03/03 06:07:48;;;;;;;148.60;87.60;;;;;;;-0.09;68.41;99268.89;108674;1252;211156;-73
2023/03/03 06:10:17;;;;;;;143.00;85.50;;;;;;;-0.03;68.36;99269.61;108851;1253;101173;-70
2023/03/03 06:12:44;;;;;;;139.20;86.10;;;;;;;0.01;68.47;99273.52;108732;1252;107089;-73
2023/03/03 06:15:12;;;;;;;144.30;87.30;;;;;;;0.00;68.37;99268.14;108843;1253;94237;-72
2023/03/03 06:17:40;;;;;;;147.90;88.90;;;;;;;-0.00;68.46;99267.45;108869;1253;94341;-69
2023/03/03 06:20:09;;;;;;;142.30;90.50;;;;;;;0.01;68.44;99270.72;108908;1253;109901;-71
2023/03/03 06:22:38;;;;;;;139.50;86.40;;;;;;;0.05;68.55;99271.34;108679;1253;100923;-73
2023/03/03 06:25:06;;;;;;;131.40;80.00;;;;;;;0.09;68.42;99272.78;108860;1252;107375;-70
2023/03/03 06:27:34;;;;;;;126.30;73.50;;;;;;;0.08;68.41;99279.27;108807;1253;94706;-71
2023/03/03 06:30:02;;;;;;;115.50;71.50;;;;;;;0.05;68.38;99279.33;108742;1253;94294;-71
2023/03/03 06:32:30;;;;;;;119.00;72.50;;;;;;;0.04;68.41;99274.49;108606;1253;108233;-72
2023/03/03 06:34:59;;;;;;;126.10;75.00;;;;;;;0.03;68.42;99282.00;108730;1253;100820;-71
2023/03/03 06:37:26;;;;;;;129.40;74.80;;;;;;;0.01;68.49;99279.77;108767;1253;107630;-78
2023/03/03 06:39:54;;;;;;;116.40;72.40;;;;;;;0.02;68.53;99277.33;108676;1253;94758;-71
2023/03/03 06:42:23;;;;;;;112.60;68.20;;;;;;;0.08;68.67;99276.30;108778;1252;94296;-70
2023/03/03 06:44:51;;;;;;;116.30;70.40;;;;;;;0.12;68.64;99279.69;108695;1253;110027;-70
2023/03/03 06:47:20;;;;;;;110.60;69.70;;;;;;;0.12;68.68;99281.60;108763;1253;100788;-72
2023/03/03 06:49:48;;;;;;;117.40;73.00;;;;;;;0.10;68.57;99282.67;108680;1252;107213;-75
2023/03/03 06:52:21;;;;;;;115.20;70.10;;;;;;;0.09;68.55;99282.88;108709;1253;94767;-75
2023/03/03 06:54:52;;;;;;;120.20;70.30;;;;;;;0.13;68.58;99284.54;108725;1252;94536;-75
2023/03/03 06:57:30;;;;;;;112.70;66.20;;;;;;;0.16;68.69;99284.83;108728;1252;109703;-75
2023/03/03 07:00:17;;;;;;;104.60;63.80;;;;;;;0.17;68.76;99291.06;108734;1252;101078;-76
2023/03/03 07:02:46;;;;;;;113.80;68.80;;;;;;;0.16;68.65;99284.30;108731;1253;107145;-76
2023/03/03 07:05:16;;;;;;;114.40;68.10;;;;;;;0.23;68.72;99282.52;108680;1253;94363;-76
2023/03/03 07:07:44;;;;;;;116.20;72.70;;;;;;;0.32;68.77;99279.16;108772;1252;94548;-73
2023/03/03 07:10:22;;;;;;;116.00;72.20;;;;;;;0.41;68.78;99282.05;108744;1252;109942;-74
2023/03/03 07:12:51;;;;;;;109.50;64.90;;;;;;;0.48;68.87;99286.92;108661;1253;100112;-78
2023/03/03 07:15:32;;;;;;;123.10;72.00;;;;;;;0.47;68.63;99289.02;108743;1252;107936;-75
2023/03/03 07:18:01;;;;;;;107.50;65.70;;;;;;;0.51;68.87;99282.48;108718;1253;94415;-74
2023/03/03 07:20:35;;;;;;;108.30;64.50;;;;;;;0.54;68.82;99282.37;108672;1253;94520;-74
2023/03/03 07:23:26;;;;;;;115.00;69.80;;;;;;;0.61;68.69;99277.48;108717;1252;109451;-76
2023/03/03 07:25:54;;;;;;;113.40;70.00;;;;;;;0.69;69.00;99280.73;108713;1253;100510;-75
2023/03/03 07:28:32;;;;;;;133.90;79.40;;;;;;;0.76;68.76;99284.20;108747;1252;107644;-76
2023/03/03 07:31:00;;;;;;;120.00;71.70;;;;;;;0.82;68.87;99280.37;108622;1253;94604;-76
2023/03/03 07:33:34;;;;;;;127.30;78.00;;;;;;;0.89;69.05;99285.23;108726;1253;94756;-75
2023/03/03 07:36:05;;;;;;;121.30;75.70;;;;;;;0.89;68.96;99278.75;108575;1253;110320;-75
2023/03/03 07:38:47;;;;;;;123.30;75.90;;;;;;;0.93;68.95;99279.52;108771;1252;101071;-77
2023/03/03 07:41:24;;;;;;;119.30;73.80;;;;;;;0.98;69.08;99277.62;108733;1253;106872;-76
2023/03/03 07:44:21;;;;;;;126.90;72.70;;;;;;;1.04;68.89;99267.83;108815;1252;94321;-75
2023/03/03 07:46:50;;;;;;;118.10;71.40;;;;;;;1.15;69.18;99266.63;108723;1253;94317;-73
2023/03/03 07:49:27;;;;;;;127.20;77.00;;;;;;;1.19;68.93;99265.13;108729;1252;110413;-74
2023/03/03 07:51:58;;;;;;;117.10;71.20;;;;;;;1.22;68.80;99266.45;108775;1252;100804;-74
2023/03/03 07:54:34;;;;;;;123.40;75.30;;;;;;;1.26;68.98;99265.08;108787;1253;106670;-76
2023/03/03 07:57:17;;;;;;;129.40;77.20;;;;;;;1.32;68.87;99261.73;108772;1252;94266;-74
2023/03/03 07:59:49;;;;;;;134.00;79.70;;;;;;;1.46;68.97;99253.08;108840;1253;94595;-74
2023/03/03 08:02:32;;;;;;;125.20;74.50;;;;;;;1.55;68.85;99252.98;108630;1253;108136;-74
2023/03/03 08:05:00;;;;;;;124.70;73.90;;;;;;;1.61;69.09;99256.11;108780;1253;100954;-74
2023/03/03 08:07:34;;;;;;;124.60;74.50;;;;;;;1.63;68.90;99259.70;108801;1252;107566;-74
2023/03/03 08:10:38;;;;;;;130.20;75.60;;;;;;;1.61;69.10;99261.35;108789;1252;94325;-74
2023/03/03 08:13:23;;;;;;;130.30;79.70;;;;;;;1.62;69.24;99259.02;108763;1252;94287;-75
2023/03/03 08:15:58;;;;;;;121.20;75.30;;;;;;;1.67;68.73;99260.98;108748;1252;110131;-74
2023/03/03 08:18:29;;;;;;;131.90;79.80;;;;;;;1.72;69.00;99264.81;108672;1253;100905;-74
2023/03/03 08:21:00;;;;;;;128.50;78.80;;;;;;;1.68;69.05;99266.89;108731;1253;107413;-74
2023/03/03 08:23:28;;;;;;;112.40;65.90;;;;;;;1.60;68.85;99264.86;108592;1252;94742;-74
2023/03/03 08:25:56;;;;;;;124.00;74.70;;;;;;;1.57;68.88;99261.30;108847;1252;94668;-74
2023/03/03 08:28:24;;;;;;;118.10;69.50;;;;;;;1.55;68.70;99261.89;108802;1252;109917;-74
2023/03/03 08:30:52;;;;;;;126.00;72.60;;;;;;;1.56;68.93;99261.69;108773;1254;100903;-77
2023/03/03 08:33:36;;;;;;;125.70;75.10;;;;;;;1.58;69.09;99260.21;108748;1253;107703;-76
2023/03/03 08:36:06;;;;;;;122.70;71.90;;;;;;;1.68;69.12;99257.77;108804;1252;94366;-75
2023/03/03 08:38:36;;;;;;;127.30;76.50;;;;;;;1.85;69.18;99260.91;108745;1253;94258;-75
2023/03/03 08:41:05;;;;;;;121.90;75.50;;;;;;;2.01;69.13;99265.79;108792;1253;110354;-74
2023/03/03 08:43:33;;;;;;;120.70;75.60;;;;;;;2.07;69.10;99263.64;108731;1254;100536;-73
2023/03/03 08:46:04;;;;;;;119.10;73.70;;;;;;;2.09;68.97;99262.20;108711;1253;108814;-74
2023/03/03 08:48:33;;;;;;;126.90;77.30;;;;;;;2.13;69.19;99261.70;108693;1253;94425;-73
2023/03/03 08:51:05;;;;;;;122.00;74.20;;;;;;;2.13;69.25;99265.39;108752;1252;94336;-73
2023/03/03 08:53:35;;;;;;;121.20;75.30;;;;;;;2.04;69.12;99262.36;108788;1253;109914;-74
2023/03/03 08:56:04;;;;;;;118.90;71.80;;;;;;;1.97;69.09;99267.70;108641;1253;100558;-72
2023/03/03 08:58:32;;;;;;;117.70;73.50;;;;;;;1.96;68.87;99269.30;108753;1252;107517;-73
2023/03/03 09:01:03;;;;;;;123.40;73.60;;;;;;;2.08;69.14;99271.15;108711;1252;94553;-74
2023/03/03 09:03:32;;;;;;;120.60;71.40;;;;;;;2.27;69.25;99269.45;108777;1252;94316;-75
2023/03/03 09:06:00;;;;;;;121.70;73.50;;;;;;;2.37;69.24;99275.90;108590;1252;109616;-75
2023/03/03 09:08:28;;;;;;;111.50;65.20;;;;;;;2.43;69.24;99272.71;108718;1253;100890;-75
2023/03/03 09:10:56;;;;;;;114.20;68.50;;;;;;;2.50;68.79;99274.58;108648;1253;107652;-74
2023/03/03 09:13:24;;;;;;;109.50;66.50;;;;;;;2.57;68.79;99267.84;108733;1252;94362;-75
2023/03/03 09:15:52;;;;;;;97.80;59.90;;;;;;;2.70;69.06;99266.15;108784;1252;94293;-76
2023/03/03 09:18:35;;;;;;;108.10;63.90;;;;;;;2.91;69.20;99261.66;108719;1252;109898;-74
2023/03/03 09:21:23;;;;;;;98.20;62.00;;;;;;;3.14;69.27;99258.34;108662;1253;100842;-74
2023/03/03 09:23:55;;;;;;;98.90;61.20;;;;;;;3.35;69.09;99258.41;108761;1252;107398;-73
2023/03/03 09:26:27;;;;;;;104.30;62.00;;;;;;;3.44;68.94;99258.40;108745;1253;94358;-74
2023/03/03 09:29:16;;;;;;;108.40;66.20;;;;;;;3.34;68.84;99258.44;108728;1252;94389;-75
2023/03/03 09:31:53;;;;;;;108.90;68.60;;;;;;;3.20;69.19;99256.56;108710;1253;110050;-73
2023/03/03 09:34:42;;;;;;;103.40;61.40;;;;;;;3.12;68.71;99261.05;108809;1253;99079;-73
2023/03/03 09:37:27;;;;;;;96.90;58.50;;;;;;;3.04;68.74;99263.81;108653;1252;107227;-77
2023/03/03 09:39:56;;;;;;;103.70;62.70;;;;;;;3.01;68.66;99266.42;108619;1253;95845;-72
2023/03/03 09:42:28;;;;;;;109.30;63.50;;;;;;;3.05;69.07;99263.42;108717;1253;94617;-72
2023/03/03 09:44:58;;;;;;;99.40;60.00;;;;;;;3.10;68.70;99261.13;108785;1252;109948;-72
2023/03/03 09:47:51;;;;;;;93.90;57.80;;;;;;;3.18;68.96;99265.71;108672;1252;100924;-74
2023/03/03 09:51:07;;;;;;;106.00;63.70;;;;;;;3.33;68.86;99272.33;108661;1252;107111;-73
2023/03/03 09:54:17;;;;;;;109.60;65.00;;;;;;;3.44;68.65;99274.36;108538;1253;94582;-72
2023/03/03 09:56:58;;;;;;;107.60;63.80;;;;;;;3.48;68.99;99274.56;108774;1253;94491;-72
2023/03/03 09:59:40;;;;;;;100.40;59.80;;;;;;;3.47;68.83;99276.17;108765;1252;109918;-72
2023/03/03 10:02:38;;;;;;;94.70;58.80;;;;;;;3.41;68.75;99283.42;108568;1255;98906;-73
2023/03/03 10:05:36;;;;;;;95.50;57.00;;;;;;;3.36;68.78;99284.66;108518;1253;107761;-73
2023/03/03 10:08:22;;;;;;;93.50;56.80;;;;;;;3.33;68.88;99287.03;108664;1253;94447;-72
2023/03/03 10:11:19;;;;;;;93.50;57.90;;;;;;;3.27;68.80;99294.13;108742;1252;94550;-72
2023/03/03 10:13:53;;;;;;;90.60;52.60;;;;;;;3.19;68.64;99293.03;108712;1252;109761;-73
2023/03/03 10:16:34;;;;;;;90.60;53.20;;;;;;;3.11;68.40;99292.96;108827;1253;100870;-72
2023/03/03 10:19:32;;;;;;;92.60;54.40;;;;;;;3.04;68.52;99299.58;108841;1253;107577;-73
2023/03/03 10:22:33;;;;;;;93.20;56.20;;;;;;;2.91;68.03;99300.92;108843;1252;94208;-73
2023/03/03 10:25:33;;;;;;;94.30;56.80;;;;;;;2.86;68.56;99296.73;108656;1253;94307;-77
2023/03/03 10:28:16;;;;;;;100.00;59.20;;;;;;;2.94;68.85;99282.42;108841;1253;109923;-72
2023/03/03 10:30:52;;;;;;;96.00;56.70;;;;;;;3.15;68.85;99268.84;108920;1253;99893;-72
2023/03/03 10:33:48;;;;;;;98.50;58.50;;;;;;;3.30;68.63;99274.36;108811;1253;108349;-72
2023/03/03 10:36:23;;;;;;;;;;;;;;;3.30;68.23;99285.43;108803;1253;94255;-73
2023/03/03 10:39:00;;;;;;;;;;;;;;;3.17;68.18;99283.63;108880;1252;94511;-72
2023/03/03 10:41:28;;;;;;;880.60;533.80;;;;;;;3.14;68.25;99289.38;108845;1253;110131;-73
2023/03/03 10:44:25;;;;;;;277.60;150.00;;;;;;;3.17;68.57;99275.78;108901;1253;100878;-76
2023/03/03 10:46:59;;;;;;;127.40;70.20;;;;;;;3.34;68.33;99277.52;108843;1252;107705;-73
2023/03/03 10:49:50;;;;;;;102.20;56.80;;;;;;;3.51;68.62;99276.70;108864;1253;94589;-73
2023/03/03 10:52:29;;;;;;;90.70;52.90;;;;;;;3.65;68.56;99274.89;108892;1253;94613;-74
2023/03/03 10:55:20;;;;;;;82.30;48.80;;;;;;;3.71;68.57;99268.70;108882;1252;109775;-73
2023/03/03 10:58:03;;;;;;;77.40;46.50;;;;;;;3.76;68.25;99261.48;108913;1253;100525;-72
2023/03/03 11:00:44;;;;;;;77.20;46.80;;;;;;;3.79;68.14;99260.64;108889;1252;107492;-72
2023/03/03 11:03:27;;;;;;;78.10;47.20;;;;;;;3.78;68.26;99258.61;108811;1254;94326;-72
2023/03/03 11:06:39;;;;;;;80.50;46.30;;;;;;;3.77;67.90;99262.14;108935;1253;94205;-72
2023/03/03 11:09:39;;;;;;;72.90;43.70;;;;;;;3.63;67.26;99263.27;108404;1252;109939;-73
2023/03/03 11:12:13;;;;;;;76.10;44.90;;;;;;;3.54;67.93;99251.67;108778;1254;100894;-72
2023/03/03 11:15:13;;;;;;;76.90;46.10;;;;;;;3.59;68.14;99250.77;108931;1253;107152;-72
2023/03/03 11:18:08;;;;;;;70.70;44.00;;;;;;;3.59;67.46;99251.64;108890;1254;94244;-72
2023/03/03 11:21:09;;;;;;;79.20;48.90;;;;;;;3.54;67.55;99251.69;108882;1256;94226;-72
2023/03/03 11:23:59;;;;;;;91.30;54.20;;;;;;;3.44;67.88;99254.18;108696;1253;108646;-74
2023/03/03 11:27:11;;;;;;;94.60;54.70;;;;;;;3.51;67.97;99250.24;108870;1253;100927;-73
2023/03/03 11:29:49;;;;;;;87.10;51.80;;;;;;;3.60;67.77;99250.21;108891;1252;107605;-72
2023/03/03 11:32:26;;;;;;;78.70;48.60;;;;;;;3.59;67.69;99249.73;108904;1252;94759;-73